createdAt,value
2017-11-22T00:00:05.288Z,0
2017-11-22T00:01:05.895Z,0
2017-11-22T00:02:06.509Z,0
2017-11-22T00:03:07.106Z,0
2017-11-22T00:04:07.707Z,0
2017-11-22T00:05:08.318Z,0
2017-11-22T00:06:08.932Z,0
2017-11-22T00:07:09.526Z,0
2017-11-22T00:08:10.132Z,0
2017-11-22T00:09:10.728Z,0
2017-11-22T00:10:11.349Z,0
2017-11-22T00:11:11.939Z,0
2017-11-22T00:12:12.552Z,0
2017-11-22T00:13:13.155Z,0
2017-11-22T00:14:13.759Z,0
2017-11-22T00:15:14.359Z,0
2017-11-22T00:16:14.965Z,0
2017-11-22T00:17:15.572Z,0
2017-11-22T00:18:16.176Z,0
2017-11-22T00:19:16.787Z,0
2017-11-22T00:20:17.396Z,0
2017-11-22T00:21:18.007Z,0
2017-11-22T00:22:18.612Z,0
2017-11-22T00:23:19.222Z,0
2017-11-22T00:24:19.844Z,0
2017-11-22T00:25:20.441Z,0
2017-11-22T00:26:21.048Z,0
2017-11-22T00:27:21.659Z,0
2017-11-22T00:28:22.263Z,0
2017-11-22T00:29:22.876Z,0
2017-11-22T00:30:23.484Z,0
2017-11-22T00:31:24.077Z,0
2017-11-22T00:32:24.680Z,0
2017-11-22T00:33:25.300Z,0
2017-11-22T00:34:26.117Z,0
2017-11-22T00:35:26.719Z,0
2017-11-22T00:36:27.364Z,0
2017-11-22T00:37:27.950Z,0
2017-11-22T00:38:28.550Z,0
2017-11-22T00:39:29.166Z,0
2017-11-22T00:40:29.749Z,0
2017-11-22T00:41:30.367Z,0
2017-11-22T00:42:30.984Z,0
2017-11-22T00:43:31.577Z,0
2017-11-22T00:44:32.212Z,0
2017-11-22T00:45:32.787Z,0
2017-11-22T00:46:33.388Z,0
2017-11-22T00:47:34.010Z,0
2017-11-22T00:48:34.633Z,0
2017-11-22T00:49:35.217Z,0
2017-11-22T00:50:35.822Z,0
2017-11-22T00:51:36.428Z,0
2017-11-22T00:52:37.025Z,0
2017-11-22T00:53:37.634Z,0
2017-11-22T00:54:38.254Z,0
2017-11-22T00:55:38.868Z,0
2017-11-22T00:56:39.471Z,0
2017-11-22T00:57:40.065Z,0
2017-11-22T00:58:40.672Z,0
2017-11-22T00:59:41.269Z,0
2017-11-22T01:01:26.074Z,0
2017-11-22T01:02:26.681Z,0
2017-11-22T01:03:27.279Z,0
2017-11-22T01:04:27.886Z,0
2017-11-22T01:05:28.484Z,0
2017-11-22T01:06:29.094Z,0
2017-11-22T01:07:29.690Z,0
2017-11-22T01:08:30.291Z,0
2017-11-22T01:09:30.894Z,0
2017-11-22T01:10:31.509Z,0
2017-11-22T01:11:32.121Z,0
2017-11-22T01:12:32.723Z,0
2017-11-22T01:13:33.325Z,0
2017-11-22T01:14:33.932Z,0
2017-11-22T01:15:34.543Z,0
2017-11-22T01:16:35.134Z,0
2017-11-22T01:17:35.732Z,0
2017-11-22T01:18:36.344Z,0
2017-11-22T01:19:36.959Z,0
2017-11-22T01:20:37.559Z,0
2017-11-22T01:21:38.176Z,0
2017-11-22T01:22:38.791Z,0
2017-11-22T01:23:39.395Z,0
2017-11-22T01:24:40.002Z,0
2017-11-22T01:25:40.623Z,0
2017-11-22T01:26:41.218Z,0
2017-11-22T01:27:41.819Z,0
2017-11-22T01:28:42.430Z,0
2017-11-22T01:29:43.027Z,0
2017-11-22T01:30:43.639Z,0
2017-11-22T01:31:44.251Z,0
2017-11-22T01:32:44.845Z,0
2017-11-22T01:33:45.447Z,0
2017-11-22T01:34:46.050Z,0
2017-11-22T01:35:46.658Z,0
2017-11-22T01:36:47.258Z,0
2017-11-22T01:37:47.882Z,0
2017-11-22T01:38:48.478Z,0
2017-11-22T01:39:49.089Z,0
2017-11-22T01:40:49.698Z,0
2017-11-22T01:41:50.306Z,0
2017-11-22T01:42:50.902Z,0
2017-11-22T01:43:51.505Z,0
2017-11-22T01:44:52.119Z,0
2017-11-22T01:45:52.711Z,0
2017-11-22T01:46:53.318Z,0
2017-11-22T01:47:53.935Z,0
2017-11-22T01:48:54.547Z,0
2017-11-22T01:49:55.144Z,0
2017-11-22T01:50:55.759Z,0
2017-11-22T01:51:56.347Z,0
2017-11-22T01:52:56.965Z,0
2017-11-22T01:53:57.577Z,0
2017-11-22T01:54:58.174Z,0
2017-11-22T01:55:58.794Z,0
2017-11-22T01:56:59.396Z,0
2017-11-22T01:57:59.994Z,0
2017-11-22T01:59:00.611Z,0
2017-11-22T02:00:01.222Z,0
2017-11-22T02:01:01.830Z,0
2017-11-22T02:02:02.449Z,0
2017-11-22T02:03:03.061Z,0
2017-11-22T02:04:03.685Z,0
2017-11-22T02:05:04.274Z,0
2017-11-22T02:06:04.874Z,0
2017-11-22T02:07:05.472Z,0
2017-11-22T02:08:06.082Z,0
2017-11-22T02:09:06.685Z,0
2017-11-22T02:10:07.290Z,0
2017-11-22T02:11:07.896Z,0
2017-11-22T02:12:08.503Z,0
2017-11-22T02:13:09.098Z,0
2017-11-22T02:14:09.702Z,0
2017-11-22T02:15:10.301Z,0
2017-11-22T02:16:10.914Z,0
2017-11-22T02:17:11.536Z,0
2017-11-22T02:18:12.141Z,0
2017-11-22T02:19:12.754Z,0
2017-11-22T02:20:13.363Z,0
2017-11-22T02:21:13.956Z,0
2017-11-22T02:22:14.562Z,0
2017-11-22T02:23:15.170Z,0
2017-11-22T02:24:15.780Z,0
2017-11-22T02:25:16.422Z,0
2017-11-22T02:26:17.004Z,0
2017-11-22T02:27:17.600Z,0
2017-11-22T02:28:18.206Z,0
2017-11-22T02:29:18.817Z,0
2017-11-22T02:30:19.415Z,0
2017-11-22T02:31:20.020Z,0
2017-11-22T02:32:20.623Z,0
2017-11-22T02:33:21.233Z,0
2017-11-22T02:34:21.850Z,0
2017-11-22T02:35:22.463Z,0
2017-11-22T02:36:23.060Z,0
2017-11-22T02:37:23.669Z,0
2017-11-22T02:38:24.273Z,0
2017-11-22T02:39:24.872Z,0
2017-11-22T02:40:25.467Z,0
2017-11-22T02:41:26.080Z,0
2017-11-22T02:42:26.694Z,0
2017-11-22T02:43:27.307Z,0
2017-11-22T02:44:27.912Z,0
2017-11-22T02:45:28.505Z,0
2017-11-22T02:46:29.107Z,0
2017-11-22T02:47:29.705Z,0
2017-11-22T02:48:30.302Z,0
2017-11-22T02:49:30.917Z,0
2017-11-22T02:50:31.549Z,0
2017-11-22T02:51:32.148Z,0
2017-11-22T02:52:32.742Z,0
2017-11-22T02:53:33.342Z,0
2017-11-22T02:54:33.938Z,0
2017-11-22T02:55:34.537Z,0
2017-11-22T02:56:35.132Z,0
2017-11-22T02:57:35.731Z,0
2017-11-22T02:58:36.346Z,0
2017-11-22T02:59:36.948Z,0
2017-11-22T03:00:37.563Z,0
2017-11-22T03:01:38.172Z,0
2017-11-22T03:02:38.773Z,0
2017-11-22T03:03:39.438Z,0
2017-11-22T03:04:39.985Z,0
2017-11-22T03:05:40.574Z,0
2017-11-22T03:06:41.167Z,0
2017-11-22T03:07:41.770Z,0
2017-11-22T03:08:42.386Z,0
2017-11-22T03:09:42.977Z,0
2017-11-22T03:10:43.571Z,0
2017-11-22T03:11:44.167Z,0
2017-11-22T03:12:44.774Z,0
2017-11-22T03:13:45.369Z,0
2017-11-22T03:14:45.975Z,0
2017-11-22T03:15:46.591Z,0
2017-11-22T03:16:47.199Z,0
2017-11-22T03:17:47.804Z,0
2017-11-22T03:18:48.416Z,0
2017-11-22T03:19:49.025Z,0
2017-11-22T03:20:49.647Z,0
2017-11-22T03:21:50.257Z,0
2017-11-22T03:22:50.857Z,0
2017-11-22T03:23:51.465Z,0
2017-11-22T03:24:52.066Z,0
2017-11-22T03:25:52.668Z,0
2017-11-22T03:26:53.270Z,0
2017-11-22T03:27:53.880Z,0
2017-11-22T03:28:54.488Z,0
2017-11-22T03:29:55.076Z,0
2017-11-22T03:30:55.680Z,0
2017-11-22T03:31:56.277Z,0
2017-11-22T03:32:56.883Z,0
2017-11-22T03:33:57.492Z,0
2017-11-22T03:34:58.093Z,0
2017-11-22T03:35:58.706Z,0
2017-11-22T03:36:59.297Z,0
2017-11-22T03:37:59.899Z,0
2017-11-22T03:39:00.504Z,0
2017-11-22T03:40:01.110Z,0
2017-11-22T03:41:01.705Z,0
2017-11-22T03:42:02.306Z,0
2017-11-22T03:43:02.911Z,0
2017-11-22T03:44:03.505Z,0
2017-11-22T03:45:04.098Z,0
2017-11-22T03:46:04.747Z,0
2017-11-22T03:47:05.321Z,0
2017-11-22T03:48:05.932Z,0
2017-11-22T03:49:06.542Z,0
2017-11-22T03:50:07.154Z,0
2017-11-22T03:51:07.762Z,0
2017-11-22T03:52:08.356Z,0
2017-11-22T03:53:08.954Z,0
2017-11-22T03:54:09.555Z,0
2017-11-22T03:55:10.164Z,0
2017-11-22T03:56:10.765Z,0
2017-11-22T03:57:11.372Z,0
2017-11-22T03:58:11.974Z,0
2017-11-22T03:59:12.577Z,0
2017-11-22T04:00:13.187Z,0
2017-11-22T04:01:13.788Z,0
2017-11-22T04:02:14.405Z,0
2017-11-22T04:03:15.015Z,0
2017-11-22T04:04:15.612Z,0
2017-11-22T04:05:16.210Z,0
2017-11-22T04:06:16.829Z,0
2017-11-22T04:07:17.438Z,0
2017-11-22T04:08:18.032Z,0
2017-11-22T04:09:18.635Z,0
2017-11-22T04:10:19.252Z,0
2017-11-22T04:11:19.862Z,0
2017-11-22T04:12:20.473Z,0
2017-11-22T04:13:21.085Z,0
2017-11-22T04:14:21.680Z,0
2017-11-22T04:15:22.286Z,0
2017-11-22T04:16:22.899Z,0
2017-11-22T04:17:23.495Z,0
2017-11-22T04:18:24.092Z,0
2017-11-22T04:19:24.698Z,0
2017-11-22T04:20:25.311Z,0
2017-11-22T04:21:25.918Z,0
2017-11-22T04:22:26.518Z,0
2017-11-22T04:23:27.120Z,0
2017-11-22T04:24:27.726Z,0
2017-11-22T04:25:28.319Z,0
2017-11-22T04:26:28.925Z,0
2017-11-22T04:27:29.529Z,0
2017-11-22T04:28:30.127Z,0
2017-11-22T04:29:30.717Z,0
2017-11-22T04:30:31.318Z,0
2017-11-22T04:31:31.914Z,0
2017-11-22T04:32:32.512Z,0
2017-11-22T04:33:33.106Z,0
2017-11-22T04:34:33.710Z,0
2017-11-22T04:35:34.313Z,0
2017-11-22T04:36:34.907Z,0
2017-11-22T04:37:35.500Z,0
2017-11-22T04:38:36.091Z,0
2017-11-22T04:39:36.695Z,0
2017-11-22T04:40:37.300Z,0
2017-11-22T04:41:37.907Z,0
2017-11-22T04:42:38.504Z,0
2017-11-22T04:43:39.107Z,0
2017-11-22T04:44:39.726Z,0
2017-11-22T04:45:40.332Z,0
2017-11-22T04:46:40.940Z,0
2017-11-22T04:47:41.530Z,0
2017-11-22T04:48:42.143Z,0
2017-11-22T04:49:42.736Z,0
2017-11-22T04:50:43.337Z,0
2017-11-22T04:51:43.932Z,0
2017-11-22T04:52:44.539Z,0
2017-11-22T04:53:45.153Z,0
2017-11-22T04:54:45.761Z,0
2017-11-22T04:55:46.365Z,0
2017-11-22T04:56:46.963Z,0
2017-11-22T04:57:47.582Z,0
2017-11-22T04:58:48.177Z,0
2017-11-22T04:59:48.791Z,0
2017-11-22T05:00:49.395Z,0
2017-11-22T05:01:50.001Z,0
2017-11-22T05:02:50.599Z,0
2017-11-22T05:03:51.210Z,0
2017-11-22T05:04:51.819Z,0
2017-11-22T05:05:52.433Z,0
2017-11-22T05:06:53.040Z,0
2017-11-22T05:07:53.639Z,0
2017-11-22T05:08:54.244Z,0
2017-11-22T05:09:54.846Z,0
2017-11-22T05:10:55.448Z,0
2017-11-22T05:11:56.061Z,0
2017-11-22T05:12:56.668Z,0
2017-11-22T05:13:57.269Z,0
2017-11-22T05:14:57.869Z,0
2017-11-22T05:15:58.480Z,0
2017-11-22T05:16:59.083Z,0
2017-11-22T05:17:59.695Z,0
2017-11-22T05:19:00.294Z,0
2017-11-22T05:20:00.900Z,0
2017-11-22T05:21:01.511Z,0
2017-11-22T05:22:02.132Z,0
2017-11-22T05:23:02.762Z,0
2017-11-22T05:24:03.351Z,0
2017-11-22T05:25:03.960Z,0
2017-11-22T05:26:04.574Z,0
2017-11-22T05:27:05.169Z,0
2017-11-22T05:28:05.764Z,0
2017-11-22T05:29:06.365Z,0
2017-11-22T05:30:06.976Z,0
2017-11-22T05:31:07.584Z,0
2017-11-22T05:32:08.184Z,0
2017-11-22T05:33:08.790Z,0
2017-11-22T05:34:09.398Z,0
2017-11-22T05:35:10.008Z,0
2017-11-22T05:36:10.622Z,0
2017-11-22T05:37:11.221Z,0
2017-11-22T05:38:11.821Z,0
2017-11-22T05:39:12.425Z,0
2017-11-22T05:40:13.033Z,0
2017-11-22T05:41:13.636Z,0
2017-11-22T05:42:14.242Z,0
2017-11-22T05:43:14.849Z,0
2017-11-22T05:44:15.475Z,0
2017-11-22T05:45:16.076Z,0
2017-11-22T05:46:16.677Z,0
2017-11-22T05:47:17.293Z,0
2017-11-22T05:48:17.882Z,0
2017-11-22T05:49:18.499Z,0
2017-11-22T05:50:19.098Z,0
2017-11-22T05:51:19.704Z,0
2017-11-22T05:52:20.301Z,0
2017-11-22T05:53:20.904Z,0
2017-11-22T05:54:21.502Z,0
2017-11-22T05:55:22.099Z,0
2017-11-22T05:56:22.712Z,0
2017-11-22T05:57:23.306Z,0
2017-11-22T05:58:23.914Z,0
2017-11-22T05:59:24.514Z,0
2017-11-22T06:00:25.120Z,0
2017-11-22T06:01:25.730Z,0
2017-11-22T06:02:26.340Z,0
2017-11-22T06:03:26.942Z,0
2017-11-22T06:04:27.542Z,0
2017-11-22T06:05:28.145Z,0
2017-11-22T06:06:28.737Z,0
2017-11-22T06:07:29.349Z,0
2017-11-22T06:08:29.964Z,0
2017-11-22T06:09:30.561Z,0
2017-11-22T06:10:31.178Z,0
2017-11-22T06:11:31.777Z,0
2017-11-22T06:12:32.384Z,0
2017-11-22T06:13:32.995Z,0
2017-11-22T06:14:33.602Z,0
2017-11-22T06:15:34.195Z,0
2017-11-22T06:16:34.798Z,0
2017-11-22T06:17:35.410Z,0
2017-11-22T06:18:36.010Z,0
2017-11-22T06:19:36.621Z,0
2017-11-22T06:20:37.238Z,0
2017-11-22T06:21:37.830Z,0
2017-11-22T06:22:38.430Z,0
2017-11-22T06:23:39.040Z,0
2017-11-22T06:24:39.664Z,0
2017-11-22T06:25:40.248Z,0
2017-11-22T06:26:40.862Z,0
2017-11-22T06:27:41.479Z,0
2017-11-22T06:28:42.090Z,4
2017-11-22T06:29:42.689Z,4
2017-11-22T06:30:43.291Z,4
2017-11-22T06:31:43.892Z,0
2017-11-22T06:32:44.487Z,4
2017-11-22T06:33:45.092Z,4
2017-11-22T06:34:45.701Z,8
2017-11-22T06:35:46.288Z,8
2017-11-22T06:36:46.886Z,12
2017-11-22T06:37:47.486Z,12
2017-11-22T06:38:48.087Z,12
2017-11-22T06:39:48.688Z,16
2017-11-22T06:40:49.295Z,16
2017-11-22T06:41:49.891Z,20
2017-11-22T06:42:50.503Z,24
2017-11-22T06:43:51.091Z,32
2017-11-22T06:44:51.702Z,36
2017-11-22T06:45:52.309Z,40
2017-11-22T06:46:52.917Z,48
2017-11-22T06:47:53.516Z,56
2017-11-22T06:48:54.129Z,64
2017-11-22T06:49:54.732Z,72
2017-11-22T06:50:55.357Z,88
2017-11-22T06:51:55.962Z,104
2017-11-22T06:52:56.572Z,124
2017-11-22T06:53:57.179Z,140
2017-11-22T06:54:57.782Z,160
2017-11-22T06:55:58.374Z,176
2017-11-22T06:56:58.986Z,196
2017-11-22T06:57:59.604Z,216
2017-11-22T06:59:00.200Z,240
2017-11-22T07:00:00.846Z,260
2017-11-22T07:01:01.418Z,288
2017-11-22T07:02:02.028Z,312
2017-11-22T07:03:02.635Z,332
2017-11-22T07:04:03.247Z,340
2017-11-22T07:05:03.852Z,364
2017-11-22T07:06:04.464Z,364
2017-11-22T07:07:05.082Z,360
2017-11-22T07:08:05.688Z,364
2017-11-22T07:09:06.286Z,388
2017-11-22T07:10:06.884Z,420
2017-11-22T07:11:07.482Z,436
2017-11-22T07:12:08.081Z,452
2017-11-22T07:13:08.702Z,476
2017-11-22T07:14:09.315Z,524
2017-11-22T07:15:09.914Z,568
2017-11-22T07:16:10.522Z,608
2017-11-22T07:17:11.140Z,648
2017-11-22T07:18:11.754Z,680
2017-11-22T07:19:12.363Z,732
2017-11-22T07:20:12.970Z,780
2017-11-22T07:21:13.583Z,796
2017-11-22T07:22:14.199Z,860
2017-11-22T07:23:14.795Z,904
2017-11-22T07:24:15.399Z,948
2017-11-22T07:25:16.016Z,1020
2017-11-22T07:26:16.617Z,1128
2017-11-22T07:27:17.215Z,1220
2017-11-22T07:28:17.824Z,1304
2017-11-22T07:29:18.443Z,1348
2017-11-22T07:30:19.090Z,1356
2017-11-22T07:31:19.675Z,1344
2017-11-22T07:32:20.282Z,1376
2017-11-22T07:33:20.895Z,1380
2017-11-22T07:34:21.492Z,1492
2017-11-22T07:35:22.101Z,1576
2017-11-22T07:36:22.705Z,1544
2017-11-22T07:37:23.313Z,1524
2017-11-22T07:38:23.922Z,1664
2017-11-22T07:39:24.533Z,1616
2017-11-22T07:40:25.126Z,1648
2017-11-22T07:41:25.743Z,1692
2017-11-22T07:42:26.339Z,1836
2017-11-22T07:43:26.947Z,1792
2017-11-22T07:44:27.559Z,1848
2017-11-22T07:45:28.165Z,1896
2017-11-22T07:46:28.780Z,1988
2017-11-22T07:47:29.388Z,2152
2017-11-22T07:48:30.005Z,2292
2017-11-22T07:49:30.617Z,2620
2017-11-22T07:50:31.231Z,2644
2017-11-22T07:51:31.850Z,2924
2017-11-22T07:52:32.469Z,3128
2017-11-22T07:53:33.076Z,3264
2017-11-22T07:54:33.674Z,3036
2017-11-22T07:55:34.286Z,2996
2017-11-22T07:56:34.897Z,3064
2017-11-22T07:57:35.504Z,3308
2017-11-22T07:58:36.120Z,3616
2017-11-22T07:59:36.732Z,3972
2017-11-22T08:00:37.336Z,4100
2017-11-22T08:01:37.935Z,4404
2017-11-22T08:02:38.545Z,4564
2017-11-22T08:03:39.145Z,4928
2017-11-22T08:04:39.774Z,5104
2017-11-22T08:05:40.396Z,5188
2017-11-22T08:06:41.036Z,5164
2017-11-22T08:07:41.655Z,5252
2017-11-22T08:08:42.249Z,5352
2017-11-22T08:09:42.858Z,5676
2017-11-22T08:10:43.470Z,6032
2017-11-22T08:11:44.077Z,6348
2017-11-22T08:12:44.679Z,6540
2017-11-22T08:13:45.284Z,6656
2017-11-22T08:14:45.885Z,6716
2017-11-22T08:15:46.489Z,6812
2017-11-22T08:16:47.107Z,6856
2017-11-22T08:17:47.725Z,6912
2017-11-22T08:18:48.349Z,6996
2017-11-22T08:19:48.960Z,7084
2017-11-22T08:20:49.574Z,7164
2017-11-22T08:21:50.179Z,7240
2017-11-22T08:22:50.791Z,7316
2017-11-22T08:23:51.414Z,7416
2017-11-22T08:24:52.037Z,7424
2017-11-22T08:25:52.651Z,7500
2017-11-22T08:26:54.269Z,7616
2017-11-22T08:27:54.891Z,7720
2017-11-22T08:28:55.518Z,7840
2017-11-22T08:29:56.130Z,7852
2017-11-22T08:30:56.740Z,7936
2017-11-22T08:31:57.354Z,8064
2017-11-22T08:32:57.971Z,8320
2017-11-22T08:33:58.582Z,8436
2017-11-22T08:34:59.201Z,8476
2017-11-22T08:35:59.815Z,8588
2017-11-22T08:37:00.431Z,8632
2017-11-22T08:38:01.044Z,8736
2017-11-22T08:39:01.648Z,8888
2017-11-22T08:40:02.262Z,9004
2017-11-22T08:41:02.860Z,9000
2017-11-22T08:42:03.475Z,9012
2017-11-22T08:43:04.086Z,9068
2017-11-22T08:44:04.713Z,9224
2017-11-22T08:45:05.371Z,9416
2017-11-22T08:46:06.008Z,9536
2017-11-22T08:47:06.612Z,9700
2017-11-22T08:48:07.220Z,9852
2017-11-22T08:49:07.835Z,10016
2017-11-22T08:50:08.447Z,10232
2017-11-22T08:51:09.059Z,10624
2017-11-22T08:52:09.673Z,10928
2017-11-22T08:53:10.274Z,11140
2017-11-22T08:54:10.888Z,11680
2017-11-22T08:55:11.546Z,12744
2017-11-22T08:56:12.165Z,12744
2017-11-22T08:57:12.747Z,12632
2017-11-22T08:58:13.360Z,12292
2017-11-22T08:59:13.970Z,13024
2017-11-22T09:00:14.575Z,12808
2017-11-22T09:01:15.187Z,12440
2017-11-22T09:02:15.804Z,11356
2017-11-22T09:03:16.420Z,10960
2017-11-22T09:04:17.066Z,10576
2017-11-22T09:05:17.676Z,10372
2017-11-22T09:06:18.291Z,10076
2017-11-22T09:07:18.897Z,9932
2017-11-22T09:08:19.519Z,10224
2017-11-22T09:09:20.128Z,10060
2017-11-22T09:10:20.742Z,9864
2017-11-22T09:11:21.345Z,9936
2017-11-22T09:12:21.965Z,10436
2017-11-22T09:13:22.596Z,11372
2017-11-22T09:14:23.228Z,12208
2017-11-22T09:15:23.860Z,12616
2017-11-22T09:16:24.483Z,12200
2017-11-22T09:17:25.111Z,11200
2017-11-22T09:18:25.747Z,10280
2017-11-22T09:19:26.372Z,10224
2017-11-22T09:20:27.002Z,9476
2017-11-22T09:21:27.648Z,9292
2017-11-22T09:22:28.287Z,9836
2017-11-22T09:23:28.903Z,10864
2017-11-22T09:24:29.524Z,11128
2017-11-22T09:25:30.162Z,11356
2017-11-22T09:26:30.804Z,11612
2017-11-22T09:27:31.453Z,11784
2017-11-22T09:28:32.326Z,12208
2017-11-22T09:29:32.972Z,13120
2017-11-22T09:30:33.605Z,13148
2017-11-22T09:31:34.235Z,14192
2017-11-22T09:32:35.071Z,13944
2017-11-22T09:33:35.678Z,13956
2017-11-22T09:34:36.309Z,13932
2017-11-22T09:35:36.946Z,13992
2017-11-22T09:36:37.592Z,13924
2017-11-22T09:37:38.215Z,13828
2017-11-22T09:38:38.856Z,13812
2017-11-22T09:39:39.471Z,14400
2017-11-22T09:40:40.093Z,14712
2017-11-22T09:41:40.704Z,15552
2017-11-22T09:42:41.333Z,15256
2017-11-22T09:43:41.962Z,13956
2017-11-22T09:44:42.656Z,13724
2017-11-22T09:45:43.281Z,12460
2017-11-22T09:46:43.902Z,12172
2017-11-22T09:47:44.518Z,12088
2017-11-22T09:48:45.142Z,12132
2017-11-22T09:49:45.766Z,12248
2017-11-22T09:50:46.398Z,12028
2017-11-22T09:51:47.029Z,12076
2017-11-22T09:52:47.633Z,12428
2017-11-22T09:53:48.276Z,12656
2017-11-22T09:54:48.881Z,13080
2017-11-22T09:55:49.495Z,13852
2017-11-22T09:56:50.101Z,14644
2017-11-22T09:57:50.729Z,14480
2017-11-22T09:58:51.353Z,14392
2017-11-22T09:59:51.970Z,15172
2017-11-22T10:00:52.577Z,14776
2017-11-22T10:01:53.187Z,15468
2017-11-22T10:02:53.794Z,16768
2017-11-22T10:03:54.402Z,16656
2017-11-22T10:04:55.031Z,16080
2017-11-22T10:05:55.650Z,16084
2017-11-22T10:06:56.268Z,15528
2017-11-22T10:07:56.879Z,16384
2017-11-22T10:08:57.501Z,17360
2017-11-22T10:09:58.108Z,17908
2017-11-22T10:10:58.751Z,16136
2017-11-22T10:11:59.378Z,15996
2017-11-22T10:13:00.006Z,15328
2017-11-22T10:14:00.631Z,15008
2017-11-22T10:15:01.250Z,14316
2017-11-22T10:16:01.884Z,13824
2017-11-22T10:17:02.503Z,13680
2017-11-22T10:18:03.123Z,13932
2017-11-22T10:19:03.745Z,14232
2017-11-22T10:20:04.370Z,13744
2017-11-22T10:21:04.994Z,13528
2017-11-22T10:22:05.690Z,13716
2017-11-22T10:23:06.292Z,13932
2017-11-22T10:24:06.920Z,13508
2017-11-22T10:25:07.527Z,13336
2017-11-22T10:26:08.139Z,13012
2017-11-22T10:27:08.753Z,13004
2017-11-22T10:28:09.380Z,13640
2017-11-22T10:29:09.990Z,13736
2017-11-22T10:30:10.597Z,13616
2017-11-22T10:31:11.222Z,13888
2017-11-22T10:32:11.832Z,13832
2017-11-22T10:33:12.446Z,13888
2017-11-22T10:34:13.067Z,14660
2017-11-22T10:35:13.694Z,14624
2017-11-22T10:36:14.316Z,14488
2017-11-22T10:37:14.941Z,15264
2017-11-22T10:38:15.565Z,15048
2017-11-22T10:39:16.177Z,15244
2017-11-22T10:40:16.783Z,15412
2017-11-22T10:41:17.403Z,15620
2017-11-22T10:42:18.080Z,15272
2017-11-22T10:43:18.690Z,15516
2017-11-22T10:44:19.300Z,15612
2017-11-22T10:45:19.915Z,15348
2017-11-22T10:46:20.542Z,15588
2017-11-22T10:47:21.179Z,15856
2017-11-22T10:48:21.798Z,15476
2017-11-22T10:49:22.412Z,15568
2017-11-22T10:50:23.036Z,15180
2017-11-22T10:51:23.669Z,15140
2017-11-22T10:52:24.285Z,14768
2017-11-22T10:53:24.923Z,14324
2017-11-22T10:54:25.558Z,14044
2017-11-22T10:55:26.159Z,13876
2017-11-22T10:56:26.779Z,13164
2017-11-22T10:57:27.415Z,12956
2017-11-22T10:58:28.029Z,13120
2017-11-22T10:59:28.642Z,13140
2017-11-22T11:00:29.249Z,13240
2017-11-22T11:01:29.854Z,13120
2017-11-22T11:02:30.477Z,12460
2017-11-22T11:03:31.107Z,12236
2017-11-22T11:04:31.723Z,12012
2017-11-22T11:05:32.356Z,11972
2017-11-22T11:06:32.995Z,11940
2017-11-22T11:07:33.617Z,12456
2017-11-22T11:08:34.236Z,12416
2017-11-22T11:09:34.876Z,12100
2017-11-22T11:10:35.517Z,11292
2017-11-22T11:11:36.154Z,11988
2017-11-22T11:12:36.772Z,11616
2017-11-22T11:13:37.403Z,11208
2017-11-22T11:14:38.020Z,11516
2017-11-22T11:15:38.661Z,11588
2017-11-22T11:16:39.285Z,11452
2017-11-22T11:17:39.920Z,11640
2017-11-22T11:18:40.532Z,11792
2017-11-22T11:19:41.171Z,12580
2017-11-22T11:20:41.773Z,13908
2017-11-22T11:21:42.391Z,16788
2017-11-22T11:22:43.034Z,20608
2017-11-22T11:23:43.674Z,20096
2017-11-22T11:24:44.434Z,19392
2017-11-22T11:25:45.050Z,18368
2017-11-22T11:26:45.679Z,18976
2017-11-22T11:27:46.319Z,19744
2017-11-22T11:28:46.946Z,22784
2017-11-22T11:29:47.566Z,24672
2017-11-22T11:30:48.198Z,24256
2017-11-22T11:31:48.836Z,24448
2017-11-22T11:32:49.476Z,23296
2017-11-22T11:33:50.111Z,22400
2017-11-22T11:34:50.738Z,22880
2017-11-22T11:35:51.365Z,22176
2017-11-22T11:36:51.997Z,20608
2017-11-22T11:37:52.642Z,21280
2017-11-22T11:38:53.281Z,22496
2017-11-22T11:39:53.912Z,23552
2017-11-22T11:40:54.550Z,23744
2017-11-22T11:41:55.185Z,22176
2017-11-22T11:42:55.829Z,20160
2017-11-22T11:43:56.467Z,17856
2017-11-22T11:44:57.110Z,18392
2017-11-22T11:45:57.732Z,17824
2017-11-22T11:46:58.368Z,15440
2017-11-22T11:47:58.976Z,15256
2017-11-22T11:48:59.615Z,16724
2017-11-22T11:50:00.242Z,16220
2017-11-22T11:51:00.861Z,16948
2017-11-22T11:52:01.494Z,16868
2017-11-22T11:53:02.112Z,15096
2017-11-22T11:54:02.733Z,12796
2017-11-22T11:55:03.358Z,11792
2017-11-22T11:56:03.989Z,12560
2017-11-22T11:57:04.627Z,12576
2017-11-22T11:58:05.255Z,10832
2017-11-22T11:59:05.888Z,10084
2017-11-22T12:00:06.522Z,8768
2017-11-22T12:01:07.158Z,7700
2017-11-22T12:02:07.792Z,7156
2017-11-22T12:03:08.428Z,7348
2017-11-22T12:04:09.044Z,9172
2017-11-22T12:05:09.694Z,10816
2017-11-22T12:06:10.306Z,13792
2017-11-22T12:07:10.936Z,15332
2017-11-22T12:08:11.569Z,14760
2017-11-22T12:09:12.199Z,14840
2017-11-22T12:10:12.805Z,15100
2017-11-22T12:11:13.422Z,16180
2017-11-22T12:12:14.045Z,17388
2017-11-22T12:13:14.668Z,16996
2017-11-22T12:14:15.294Z,16804
2017-11-22T12:15:15.915Z,14252
2017-11-22T12:16:16.534Z,13376
2017-11-22T12:17:17.174Z,14272
2017-11-22T12:18:17.788Z,13048
2017-11-22T12:19:18.417Z,10276
2017-11-22T12:20:19.049Z,8292
2017-11-22T12:21:19.680Z,6896
2017-11-22T12:22:20.302Z,6140
2017-11-22T12:23:20.929Z,5872
2017-11-22T12:24:21.534Z,5924
2017-11-22T12:25:22.147Z,5964
2017-11-22T12:26:22.751Z,5972
2017-11-22T12:27:23.364Z,5952
2017-11-22T12:28:23.972Z,5936
2017-11-22T12:29:24.596Z,5888
2017-11-22T12:30:25.229Z,6056
2017-11-22T12:31:25.845Z,6008
2017-11-22T12:32:26.472Z,5904
2017-11-22T12:33:27.080Z,5848
2017-11-22T12:34:27.708Z,5820
2017-11-22T12:35:28.306Z,5780
2017-11-22T12:36:28.925Z,5748
2017-11-22T12:37:29.550Z,5732
2017-11-22T12:38:30.162Z,5684
2017-11-22T12:39:30.774Z,5624
2017-11-22T12:40:31.381Z,5580
2017-11-22T12:41:32.008Z,5536
2017-11-22T12:42:32.640Z,5484
2017-11-22T12:43:33.265Z,5452
2017-11-22T12:44:33.884Z,5460
2017-11-22T12:45:34.499Z,5452
2017-11-22T12:46:35.104Z,5436
2017-11-22T12:47:35.724Z,5412
2017-11-22T12:48:36.328Z,5396
2017-11-22T12:49:36.942Z,5376
2017-11-22T12:50:37.550Z,5336
2017-11-22T12:51:38.172Z,5308
2017-11-22T12:52:38.779Z,5288
2017-11-22T12:53:39.382Z,5172
2017-11-22T12:54:40.012Z,5136
2017-11-22T12:55:40.632Z,5236
2017-11-22T12:56:41.254Z,5232
2017-11-22T12:57:41.866Z,5224
2017-11-22T12:58:42.471Z,5224
2017-11-22T12:59:43.075Z,5228
2017-11-22T13:00:43.687Z,5228
2017-11-22T13:01:44.304Z,5212
2017-11-22T13:02:44.917Z,5188
2017-11-22T13:03:45.531Z,5148
2017-11-22T13:04:46.176Z,5112
2017-11-22T13:05:46.793Z,5076
2017-11-22T13:06:47.412Z,5056
2017-11-22T13:07:48.033Z,5048
2017-11-22T13:08:48.651Z,5044
2017-11-22T13:09:49.269Z,5028
2017-11-22T13:10:49.878Z,5020
2017-11-22T13:11:50.486Z,5024
2017-11-22T13:12:51.092Z,5028
2017-11-22T13:13:51.696Z,5036
2017-11-22T13:14:52.321Z,5040
2017-11-22T13:15:52.928Z,5036
2017-11-22T13:16:53.591Z,5024
2017-11-22T13:17:54.175Z,5012
2017-11-22T13:18:54.800Z,4996
2017-11-22T13:19:55.420Z,4976
2017-11-22T13:20:56.028Z,4964
2017-11-22T13:21:56.659Z,4944
2017-11-22T13:22:57.288Z,4920
2017-11-22T13:23:57.902Z,4892
2017-11-22T13:24:58.518Z,4872
2017-11-22T13:25:59.131Z,4856
2017-11-22T13:26:59.750Z,4848
2017-11-22T13:28:00.359Z,4824
2017-11-22T13:29:00.976Z,4812
2017-11-22T13:30:01.600Z,4808
2017-11-22T13:31:02.220Z,4796
2017-11-22T13:32:02.823Z,4784
2017-11-22T13:33:03.425Z,4776
2017-11-22T13:34:04.047Z,4764
2017-11-22T13:35:04.676Z,4744
2017-11-22T13:36:05.284Z,4728
2017-11-22T13:37:05.909Z,4712
2017-11-22T13:38:06.538Z,4692
2017-11-22T13:39:07.168Z,4664
2017-11-22T13:40:07.775Z,4644
2017-11-22T13:41:08.394Z,4616
2017-11-22T13:42:09.005Z,4584
2017-11-22T13:43:09.630Z,4552
2017-11-22T13:44:10.260Z,4524
2017-11-22T13:45:10.896Z,4508
2017-11-22T13:46:11.496Z,4488
2017-11-22T13:47:12.119Z,4468
2017-11-22T13:48:12.724Z,4440
2017-11-22T13:49:13.329Z,4420
2017-11-22T13:50:13.945Z,4396
2017-11-22T13:51:14.571Z,4372
2017-11-22T13:52:15.186Z,4352
2017-11-22T13:53:15.800Z,4336
2017-11-22T13:54:16.415Z,4316
2017-11-22T13:55:17.042Z,4288
2017-11-22T13:56:17.646Z,4256
2017-11-22T13:57:18.255Z,4228
2017-11-22T13:58:18.863Z,4204
2017-11-22T13:59:19.489Z,4172
2017-11-22T14:00:20.090Z,4140
2017-11-22T14:01:20.693Z,4100
2017-11-22T14:02:21.308Z,4072